sensor_id;sensor_type;location;lat;lon;timestamp;pressure;altitude;pressure_sealevel;temperature;humidity
20119;BME280;10220;42.716;23.306;2022-08-18T00:00:15;95065.69;;;22.43;100.00
20119;BME280;10220;42.716;23.306;2022-08-18T00:02:44;95104.84;;;22.36;100.00
20119;BME280;10220;42.716;23.306;2022-08-18T00:05:10;95092.50;;;22.27;100.00
20119;BME280;10220;42.716;23.306;2022-08-18T00:07:37;95095.56;;;22.00;100.00
20119;BME280;10220;42.716;23.306;2022-08-18T00:10:04;95105.31;;;22.71;100.00
20119;BME280;10220;42.716;23.306;2022-08-18T00:12:37;95100.03;;;22.71;100.00
20119;BME280;10220;42.716;23.306;2022-08-18T00:15:07;95105.22;;;22.53;100.00
20119;BME280;10220;42.716;23.306;2022-08-18T00:17:34;95103.75;;;22.94;100.00
20119;BME280;10220;42.716;23.306;2022-08-18T00:20:01;95099.53;;;22.93;100.00
20119;BME280;10220;42.716;23.306;2022-08-18T00:22:27;95099.22;;;22.99;100.00
20119;BME280;10220;42.716;23.306;2022-08-18T00:24:54;95096.16;;;23.15;100.00
20119;BME280;10220;42.716;23.306;2022-08-18T00:27:25;95063.13;;;23.13;100.00
20119;BME280;10220;42.716;23.306;2022-08-18T00:29:52;95070.81;;;23.09;100.00
20119;BME280;10220;42.716;23.306;2022-08-18T00:32:24;95103.72;;;23.45;100.00
20119;BME280;10220;42.716;23.306;2022-08-18T00:34:51;95092.69;;;23.15;100.00
20119;BME280;10220;42.716;23.306;2022-08-18T00:37:17;95105.19;;;22.81;100.00
20119;BME280;10220;42.716;23.306;2022-08-18T00:39:42;95095.03;;;22.42;100.00
20119;BME280;10220;42.716;23.306;2022-08-18T00:42:18;95102.09;;;22.13;100.00
20119;BME280;10220;42.716;23.306;2022-08-18T00:44:44;95092.66;;;20.96;100.00
20119;BME280;10220;42.716;23.306;2022-08-18T00:47:10;95100.22;;;21.17;100.00
20119;BME280;10220;42.716;23.306;2022-08-18T00:49:37;95107.28;;;21.84;100.00
20119;BME280;10220;42.716;23.306;2022-08-18T00:52:05;95108.72;;;22.43;100.00
20119;BME280;10220;42.716;23.306;2022-08-18T00:54:32;95104.59;;;22.33;100.00
20119;BME280;10220;42.716;23.306;2022-08-18T00:57:02;95117.63;;;22.52;100.00
20119;BME280;10220;42.716;23.306;2022-08-18T00:59:51;95113.97;;;22.77;100.00
20119;BME280;10220;42.716;23.306;2022-08-18T01:02:23;95109.38;;;21.87;100.00
20119;BME280;10220;42.716;23.306;2022-08-18T01:05:02;95083.97;;;22.35;100.00
20119;BME280;10220;42.716;23.306;2022-08-18T01:07:37;95112.31;;;22.57;100.00
20119;BME280;10220;42.716;23.306;2022-08-18T01:10:06;95122.63;;;22.82;100.00
20119;BME280;10220;42.716;23.306;2022-08-18T01:12:32;95116.22;;;22.32;100.00
20119;BME280;10220;42.716;23.306;2022-08-18T01:14:58;95090.06;;;21.54;100.00
20119;BME280;10220;42.716;23.306;2022-08-18T01:17:24;95081.19;;;21.83;100.00
20119;BME280;10220;42.716;23.306;2022-08-18T01:20:14;95111.06;;;21.11;100.00
20119;BME280;10220;42.716;23.306;2022-08-18T01:23:12;95117.31;;;21.87;100.00
20119;BME280;10220;42.716;23.306;2022-08-18T01:25:40;95105.41;;;22.28;100.00
20119;BME280;10220;42.716;23.306;2022-08-18T01:28:28;95088.06;;;22.17;100.00
20119;BME280;10220;42.716;23.306;2022-08-18T01:30:55;95104.88;;;22.31;100.00
20119;BME280;10220;42.716;23.306;2022-08-18T01:33:27;95097.78;;;21.30;100.00
20119;BME280;10220;42.716;23.306;2022-08-18T01:36:00;95106.44;;;21.41;100.00
20119;BME280;10220;42.716;23.306;2022-08-18T01:38:26;95069.16;;;21.04;100.00
20119;BME280;10220;42.716;23.306;2022-08-18T01:43:19;95073.38;;;21.63;100.00
20119;BME280;10220;42.716;23.306;2022-08-18T01:45:44;95120.28;;;21.13;100.00
20119;BME280;10220;42.716;23.306;2022-08-18T01:48:10;95110.47;;;21.23;100.00
20119;BME280;10220;42.716;23.306;2022-08-18T01:50:36;95085.75;;;21.68;100.00
20119;BME280;10220;42.716;23.306;2022-08-18T01:53:04;95061.44;;;21.76;100.00
20119;BME280;10220;42.716;23.306;2022-08-18T01:55:35;95093.97;;;21.61;100.00
20119;BME280;10220;42.716;23.306;2022-08-18T01:58:01;95083.50;;;20.59;100.00
20119;BME280;10220;42.716;23.306;2022-08-18T02:00:27;95049.06;;;20.10;100.00
20119;BME280;10220;42.716;23.306;2022-08-18T02:02:54;95101.38;;;20.66;100.00
20119;BME280;10220;42.716;23.306;2022-08-18T02:05:31;95089.84;;;21.50;100.00
20119;BME280;10220;42.716;23.306;2022-08-18T02:07:58;95078.19;;;21.46;100.00
20119;BME280;10220;42.716;23.306;2022-08-18T02:10:24;95072.94;;;20.73;100.00
20119;BME280;10220;42.716;23.306;2022-08-18T02:12:49;95097.94;;;20.91;100.00
20119;BME280;10220;42.716;23.306;2022-08-18T02:15:15;95118.50;;;20.84;100.00
20119;BME280;10220;42.716;23.306;2022-08-18T02:17:42;95083.25;;;20.40;100.00
20119;BME280;10220;42.716;23.306;2022-08-18T02:20:11;95112.34;;;21.13;100.00
20119;BME280;10220;42.716;23.306;2022-08-18T02:22:37;95067.00;;;21.21;100.00
20119;BME280;10220;42.716;23.306;2022-08-18T02:25:06;95081.22;;;21.20;100.00
20119;BME280;10220;42.716;23.306;2022-08-18T02:27:33;95099.84;;;21.38;100.00
20119;BME280;10220;42.716;23.306;2022-08-18T02:30:06;95042.75;;;20.26;100.00
20119;BME280;10220;42.716;23.306;2022-08-18T02:32:32;95098.88;;;21.24;100.00
20119;BME280;10220;42.716;23.306;2022-08-18T02:34:58;95053.25;;;21.29;100.00
20119;BME280;10220;42.716;23.306;2022-08-18T02:37:23;95086.22;;;21.80;100.00
20119;BME280;10220;42.716;23.306;2022-08-18T02:39:49;95096.91;;;20.82;100.00
20119;BME280;10220;42.716;23.306;2022-08-18T02:42:14;95099.03;;;20.25;100.00
20119;BME280;10220;42.716;23.306;2022-08-18T02:44:40;95103.28;;;20.36;100.00
20119;BME280;10220;42.716;23.306;2022-08-18T02:47:06;95099.78;;;20.90;100.00
20119;BME280;10220;42.716;23.306;2022-08-18T02:49:32;95095.47;;;21.19;100.00
20119;BME280;10220;42.716;23.306;2022-08-18T02:51:57;95121.66;;;20.91;100.00
20119;BME280;10220;42.716;23.306;2022-08-18T02:54:24;95104.28;;;20.60;100.00
20119;BME280;10220;42.716;23.306;2022-08-18T02:56:51;95066.34;;;20.86;100.00
20119;BME280;10220;42.716;23.306;2022-08-18T02:59:25;95078.81;;;21.28;100.00
20119;BME280;10220;42.716;23.306;2022-08-18T03:01:54;95106.41;;;20.38;100.00
20119;BME280;10220;42.716;23.306;2022-08-18T03:04:24;95069.59;;;19.94;100.00
20119;BME280;10220;42.716;23.306;2022-08-18T03:06:52;95103.53;;;20.05;100.00
20119;BME280;10220;42.716;23.306;2022-08-18T03:09:17;95110.28;;;19.76;100.00
20119;BME280;10220;42.716;23.306;2022-08-18T03:11:43;95059.28;;;19.87;100.00
20119;BME280;10220;42.716;23.306;2022-08-18T03:14:09;95114.56;;;20.27;100.00
20119;BME280;10220;42.716;23.306;2022-08-18T03:16:40;95113.50;;;20.82;100.00
20119;BME280;10220;42.716;23.306;2022-08-18T03:19:06;95114.53;;;20.86;100.00
20119;BME280;10220;42.716;23.306;2022-08-18T03:21:33;95106.66;;;20.02;100.00
20119;BME280;10220;42.716;23.306;2022-08-18T03:24:01;95116.75;;;19.34;100.00
20119;BME280;10220;42.716;23.306;2022-08-18T03:26:28;95065.56;;;18.85;100.00
20119;BME280;10220;42.716;23.306;2022-08-18T03:28:54;95119.63;;;18.77;100.00
20119;BME280;10220;42.716;23.306;2022-08-18T03:31:22;95062.94;;;19.46;100.00
20119;BME280;10220;42.716;23.306;2022-08-18T03:33:48;95127.09;;;19.65;100.00
20119;BME280;10220;42.716;23.306;2022-08-18T03:36:18;95068.06;;;19.12;100.00
20119;BME280;10220;42.716;23.306;2022-08-18T03:38:45;95079.31;;;19.93;100.00
20119;BME280;10220;42.716;23.306;2022-08-18T03:41:12;95121.88;;;19.85;100.00
20119;BME280;10220;42.716;23.306;2022-08-18T03:43:38;95128.09;;;18.93;100.00
20119;BME280;10220;42.716;23.306;2022-08-18T03:46:08;95118.69;;;18.97;100.00
20119;BME280;10220;42.716;23.306;2022-08-18T03:48:35;95116.09;;;19.07;100.00
20119;BME280;10220;42.716;23.306;2022-08-18T03:51:23;95113.41;;;18.97;100.00
20119;BME280;10220;42.716;23.306;2022-08-18T03:53:53;95099.56;;;19.07;100.00
20119;BME280;10220;42.716;23.306;2022-08-18T03:56:22;95121.25;;;19.43;100.00
20119;BME280;10220;42.716;23.306;2022-08-18T03:58:51;95129.09;;;19.39;100.00
20119;BME280;10220;42.716;23.306;2022-08-18T04:01:22;95134.81;;;19.16;100.00
20119;BME280;10220;42.716;23.306;2022-08-18T04:03:52;95129.22;;;18.61;100.00
20119;BME280;10220;42.716;23.306;2022-08-18T04:06:20;95132.28;;;18.48;100.00
20119;BME280;10220;42.716;23.306;2022-08-18T04:08:49;95142.06;;;18.58;100.00
20119;BME280;10220;42.716;23.306;2022-08-18T04:11:15;95138.13;;;18.60;100.00
20119;BME280;10220;42.716;23.306;2022-08-18T04:13:41;95143.69;;;18.64;100.00
20119;BME280;10220;42.716;23.306;2022-08-18T04:16:07;95129.19;;;18.56;100.00
20119;BME280;10220;42.716;23.306;2022-08-18T04:18:33;95144.69;;;18.58;100.00
20119;BME280;10220;42.716;23.306;2022-08-18T04:21:07;95133.09;;;18.95;100.00
20119;BME280;10220;42.716;23.306;2022-08-18T04:23:37;95152.56;;;19.55;100.00
20119;BME280;10220;42.716;23.306;2022-08-18T04:26:05;95152.28;;;19.51;100.00
20119;BME280;10220;42.716;23.306;2022-08-18T04:28:33;95159.34;;;19.41;100.00
20119;BME280;10220;42.716;23.306;2022-08-18T04:31:08;95159.84;;;19.33;100.00
20119;BME280;10220;42.716;23.306;2022-08-18T04:33:34;95151.19;;;19.33;100.00
20119;BME280;10220;42.716;23.306;2022-08-18T04:36:07;95158.84;;;19.49;100.00
20119;BME280;10220;42.716;23.306;2022-08-18T04:38:33;95130.44;;;19.46;100.00
20119;BME280;10220;42.716;23.306;2022-08-18T04:40:58;95120.09;;;19.91;100.00
20119;BME280;10220;42.716;23.306;2022-08-18T04:43:24;95154.53;;;21.18;100.00
20119;BME280;10220;42.716;23.306;2022-08-18T04:45:49;95155.44;;;21.57;100.00
20119;BME280;10220;42.716;23.306;2022-08-18T04:48:15;95168.00;;;21.80;100.00
20119;BME280;10220;42.716;23.306;2022-08-18T04:50:42;95167.81;;;22.86;100.00
20119;BME280;10220;42.716;23.306;2022-08-18T04:53:08;95172.28;;;23.18;100.00
20119;BME280;10220;42.716;23.306;2022-08-18T04:55:54;95188.94;;;22.86;100.00
20119;BME280;10220;42.716;23.306;2022-08-18T04:58:21;95181.94;;;22.71;100.00
20119;BME280;10220;42.716;23.306;2022-08-18T05:00:58;95187.56;;;23.21;100.00
20119;BME280;10220;42.716;23.306;2022-08-18T05:03:24;95176.00;;;22.56;100.00
20119;BME280;10220;42.716;23.306;2022-08-18T05:05:53;95113.16;;;21.77;100.00
20119;BME280;10220;42.716;23.306;2022-08-18T05:08:18;95179.44;;;21.55;100.00
20119;BME280;10220;42.716;23.306;2022-08-18T05:10:44;95182.41;;;21.97;100.00
20119;BME280;10220;42.716;23.306;2022-08-18T05:13:11;95182.53;;;22.20;100.00
20119;BME280;10220;42.716;23.306;2022-08-18T05:15:40;95176.31;;;22.06;100.00
20119;BME280;10220;42.716;23.306;2022-08-18T05:18:07;95148.47;;;22.24;100.00
20119;BME280;10220;42.716;23.306;2022-08-18T05:20:33;95162.44;;;22.67;100.00
20119;BME280;10220;42.716;23.306;2022-08-18T05:22:59;95190.34;;;23.58;100.00
20119;BME280;10220;42.716;23.306;2022-08-18T05:25:24;95201.09;;;23.90;100.00
20119;BME280;10220;42.716;23.306;2022-08-18T05:27:50;95171.94;;;24.13;100.00
20119;BME280;10220;42.716;23.306;2022-08-18T05:30:15;95189.59;;;23.99;100.00
20119;BME280;10220;42.716;23.306;2022-08-18T05:32:43;95196.03;;;23.23;100.00
20119;BME280;10220;42.716;23.306;2022-08-18T05:35:15;95202.50;;;22.79;100.00
20119;BME280;10220;42.716;23.306;2022-08-18T05:41:24;95193.53;;;22.42;100.00
20119;BME280;10220;42.716;23.306;2022-08-18T05:43:51;95192.13;;;22.54;100.00
20119;BME280;10220;42.716;23.306;2022-08-18T05:46:17;95159.19;;;22.42;100.00
20119;BME280;10220;42.716;23.306;2022-08-18T05:48:43;95169.44;;;22.82;100.00
20119;BME280;10220;42.716;23.306;2022-08-18T05:51:15;95191.25;;;22.97;100.00
20119;BME280;10220;42.716;23.306;2022-08-18T05:53:42;95178.06;;;23.44;100.00
20119;BME280;10220;42.716;23.306;2022-08-18T05:56:31;95172.03;;;23.62;100.00
20119;BME280;10220;42.716;23.306;2022-08-18T05:59:26;95195.31;;;23.41;100.00
20119;BME280;10220;42.716;23.306;2022-08-18T06:02:01;95182.63;;;23.62;100.00
20119;BME280;10220;42.716;23.306;2022-08-18T06:07:04;95195.34;;;23.36;100.00
20119;BME280;10220;42.716;23.306;2022-08-18T06:09:37;95137.13;;;23.18;100.00
20119;BME280;10220;42.716;23.306;2022-08-18T06:14:43;95175.88;;;23.51;100.00
20119;BME280;10220;42.716;23.306;2022-08-18T06:20:21;95178.34;;;23.42;100.00
20119;BME280;10220;42.716;23.306;2022-08-18T06:23:28;95183.53;;;23.29;100.00
20119;BME280;10220;42.716;23.306;2022-08-18T06:26:12;95151.59;;;23.44;100.00
20119;BME280;10220;42.716;23.306;2022-08-18T06:31:32;95155.44;;;23.56;100.00
20119;BME280;10220;42.716;23.306;2022-08-18T06:34:16;95180.78;;;23.85;100.00
20119;BME280;10220;42.716;23.306;2022-08-18T06:36:58;95189.91;;;23.74;100.00
20119;BME280;10220;42.716;23.306;2022-08-18T06:39:58;95188.09;;;23.93;100.00
20119;BME280;10220;42.716;23.306;2022-08-18T06:42:27;95181.34;;;24.01;100.00
20119;BME280;10220;42.716;23.306;2022-08-18T06:45:14;95151.81;;;23.94;100.00
20119;BME280;10220;42.716;23.306;2022-08-18T06:47:59;95172.88;;;24.40;100.00
20119;BME280;10220;42.716;23.306;2022-08-18T06:50:55;95171.38;;;24.84;100.00
20119;BME280;10220;42.716;23.306;2022-08-18T06:53:22;95151.91;;;24.89;100.00
20119;BME280;10220;42.716;23.306;2022-08-18T06:58:52;95165.47;;;25.46;100.00
20119;BME280;10220;42.716;23.306;2022-08-18T07:01:21;95161.00;;;26.22;100.00
20119;BME280;10220;42.716;23.306;2022-08-18T07:03:54;95162.03;;;25.99;100.00
20119;BME280;10220;42.716;23.306;2022-08-18T07:08:47;95153.63;;;26.19;97.14
20119;BME280;10220;42.716;23.306;2022-08-18T07:11:28;95147.75;;;26.08;99.85
20119;BME280;10220;42.716;23.306;2022-08-18T07:14:14;95132.72;;;26.04;100.00
20119;BME280;10220;42.716;23.306;2022-08-18T07:16:45;95145.38;;;26.56;96.84
20119;BME280;10220;42.716;23.306;2022-08-18T07:19:13;95149.41;;;26.75;93.67
20119;BME280;10220;42.716;23.306;2022-08-18T07:21:42;95136.03;;;26.45;92.76
20119;BME280;10220;42.716;23.306;2022-08-18T07:29:34;95120.59;;;27.68;84.39
20119;BME280;10220;42.716;23.306;2022-08-18T07:32:18;95143.56;;;28.02;84.25
20119;BME280;10220;42.716;23.306;2022-08-18T07:34:49;95139.88;;;27.73;87.11
20119;BME280;10220;42.716;23.306;2022-08-18T07:37:30;95149.22;;;28.09;82.74
20119;BME280;10220;42.716;23.306;2022-08-18T07:40:05;95140.78;;;28.24;81.85
20119;BME280;10220;42.716;23.306;2022-08-18T07:42:47;95136.84;;;28.64;80.67
20119;BME280;10220;42.716;23.306;2022-08-18T07:45:30;95135.63;;;28.36;78.13
20119;BME280;10220;42.716;23.306;2022-08-18T07:50:50;95132.63;;;28.29;78.26
20119;BME280;10220;42.716;23.306;2022-08-18T07:56:27;95137.81;;;28.51;78.42
20119;BME280;10220;42.716;23.306;2022-08-18T07:59:14;95106.72;;;28.63;76.45
20119;BME280;10220;42.716;23.306;2022-08-18T08:01:56;95136.28;;;29.21;71.54
20119;BME280;10220;42.716;23.306;2022-08-18T08:04:51;95147.41;;;29.23;71.94
20119;BME280;10220;42.716;23.306;2022-08-18T08:07:29;95105.97;;;29.63;68.37
20119;BME280;10220;42.716;23.306;2022-08-18T08:18:41;95134.31;;;30.13;67.55
20119;BME280;10220;42.716;23.306;2022-08-18T08:21:17;95132.19;;;30.38;64.49
20119;BME280;10220;42.716;23.306;2022-08-18T08:23:49;95125.03;;;30.30;65.63
20119;BME280;10220;42.716;23.306;2022-08-18T08:28:50;95123.41;;;30.18;65.08
20119;BME280;10220;42.716;23.306;2022-08-18T08:36:44;95128.72;;;30.79;60.05
20119;BME280;10220;42.716;23.306;2022-08-18T08:39:19;95120.19;;;31.29;55.91
20119;BME280;10220;42.716;23.306;2022-08-18T08:44:29;95105.53;;;31.15;57.27
20119;BME280;10220;42.716;23.306;2022-08-18T08:47:08;95082.22;;;31.27;53.10
20119;BME280;10220;42.716;23.306;2022-08-18T08:49:47;95094.53;;;31.40;53.43
20119;BME280;10220;42.716;23.306;2022-08-18T08:52:20;95110.03;;;31.35;54.35
20119;BME280;10220;42.716;23.306;2022-08-18T08:54:58;95096.41;;;31.16;53.63
20119;BME280;10220;42.716;23.306;2022-08-18T08:57:32;95116.03;;;31.20;49.96
20119;BME280;10220;42.716;23.306;2022-08-18T09:00:02;95125.94;;;31.51;50.07
20119;BME280;10220;42.716;23.306;2022-08-18T09:05:52;95108.41;;;32.02;48.75
20119;BME280;10220;42.716;23.306;2022-08-18T09:08:37;95105.50;;;31.83;48.04
20119;BME280;10220;42.716;23.306;2022-08-18T09:14:29;95099.56;;;31.53;50.74
20119;BME280;10220;42.716;23.306;2022-08-18T09:19:53;95091.19;;;31.67;47.16
20119;BME280;10220;42.716;23.306;2022-08-18T09:22:50;95079.03;;;31.57;47.57
20119;BME280;10220;42.716;23.306;2022-08-18T09:30:40;95031.75;;;31.41;48.76
20119;BME280;10220;42.716;23.306;2022-08-18T09:38:55;95027.97;;;32.17;45.82
20119;BME280;10220;42.716;23.306;2022-08-18T09:41:56;95041.09;;;32.07;46.84
20119;BME280;10220;42.716;23.306;2022-08-18T09:50:30;95076.34;;;32.32;45.70
20119;BME280;10220;42.716;23.306;2022-08-18T09:57:42;95053.03;;;32.48;45.46
20119;BME280;10220;42.716;23.306;2022-08-18T10:07:47;95046.59;;;32.80;45.67
20119;BME280;10220;42.716;23.306;2022-08-18T10:18:55;95024.13;;;33.15;41.64
20119;BME280;10220;42.716;23.306;2022-08-18T10:21:29;95007.91;;;32.96;42.56
20119;BME280;10220;42.716;23.306;2022-08-18T10:24:17;95019.19;;;33.33;42.27
20119;BME280;10220;42.716;23.306;2022-08-18T10:34:46;94990.91;;;32.77;40.78
20119;BME280;10220;42.716;23.306;2022-08-18T10:37:35;95033.75;;;33.16;38.89
20119;BME280;10220;42.716;23.306;2022-08-18T10:40:13;95023.72;;;32.71;38.87
20119;BME280;10220;42.716;23.306;2022-08-18T10:42:47;95015.72;;;33.01;39.97
20119;BME280;10220;42.716;23.306;2022-08-18T10:50:41;94995.16;;;33.09;38.92
20119;BME280;10220;42.716;23.306;2022-08-18T10:56:39;95012.13;;;32.82;39.74
20119;BME280;10220;42.716;23.306;2022-08-18T11:04:45;95005.72;;;33.48;38.83
20119;BME280;10220;42.716;23.306;2022-08-18T11:07:23;95001.00;;;33.76;38.02
20119;BME280;10220;42.716;23.306;2022-08-18T11:09:53;94995.47;;;33.69;39.09
20119;BME280;10220;42.716;23.306;2022-08-18T11:21:20;94998.13;;;33.84;38.81
20119;BME280;10220;42.716;23.306;2022-08-18T11:23:39;94962.88;;;33.39;38.10
20119;BME280;10220;42.716;23.306;2022-08-18T11:26:15;94992.00;;;34.02;36.83
20119;BME280;10220;42.716;23.306;2022-08-18T11:28:41;94992.03;;;34.06;36.97
20119;BME280;10220;42.716;23.306;2022-08-18T11:31:07;94993.34;;;34.12;37.00
20119;BME280;10220;42.716;23.306;2022-08-18T11:33:33;94991.19;;;34.40;36.20
20119;BME280;10220;42.716;23.306;2022-08-18T11:35:58;94997.00;;;34.42;35.24
20119;BME280;10220;42.716;23.306;2022-08-18T11:38:26;94986.34;;;34.67;35.67
20119;BME280;10220;42.716;23.306;2022-08-18T11:41:28;94960.53;;;34.66;35.56
20119;BME280;10220;42.716;23.306;2022-08-18T11:43:58;94948.16;;;34.43;35.76
20119;BME280;10220;42.716;23.306;2022-08-18T11:46:30;94988.31;;;34.10;37.06
20119;BME280;10220;42.716;23.306;2022-08-18T11:49:00;94961.16;;;34.19;37.49
20119;BME280;10220;42.716;23.306;2022-08-18T11:51:56;94938.81;;;34.37;37.12
20119;BME280;10220;42.716;23.306;2022-08-18T11:54:22;94964.16;;;35.70;35.56
20119;BME280;10220;42.716;23.306;2022-08-18T12:03:41;94950.72;;;36.03;34.76
20119;BME280;10220;42.716;23.306;2022-08-18T12:06:17;94949.97;;;36.02;35.36
20119;BME280;10220;42.716;23.306;2022-08-18T12:09:14;94951.59;;;35.29;36.14
20119;BME280;10220;42.716;23.306;2022-08-18T12:11:53;94917.81;;;34.65;36.81
20119;BME280;10220;42.716;23.306;2022-08-18T12:14:23;94913.16;;;34.43;37.63
20119;BME280;10220;42.716;23.306;2022-08-18T12:16:49;94928.84;;;34.38;37.42
20119;BME280;10220;42.716;23.306;2022-08-18T12:19:15;94934.94;;;33.97;37.34
20119;BME280;10220;42.716;23.306;2022-08-18T12:21:44;94937.53;;;34.09;37.58
20119;BME280;10220;42.716;23.306;2022-08-18T12:24:23;94951.53;;;33.99;38.67
20119;BME280;10220;42.716;23.306;2022-08-18T12:26:49;94917.81;;;33.86;38.00
20119;BME280;10220;42.716;23.306;2022-08-18T12:29:15;94926.38;;;33.92;37.53
20119;BME280;10220;42.716;23.306;2022-08-18T12:31:43;94948.13;;;34.02;37.70
20119;BME280;10220;42.716;23.306;2022-08-18T12:34:09;94960.06;;;34.01;38.67
20119;BME280;10220;42.716;23.306;2022-08-18T12:36:35;94940.66;;;33.95;38.37
20119;BME280;10220;42.716;23.306;2022-08-18T12:39:01;94911.25;;;33.49;38.58
20119;BME280;10220;42.716;23.306;2022-08-18T12:41:26;94942.94;;;33.75;38.52
20119;BME280;10220;42.716;23.306;2022-08-18T12:43:51;94905.88;;;33.49;38.81
20119;BME280;10220;42.716;23.306;2022-08-18T12:46:20;94911.03;;;33.39;38.84
20119;BME280;10220;42.716;23.306;2022-08-18T12:48:46;94957.72;;;33.65;39.33
20119;BME280;10220;42.716;23.306;2022-08-18T12:51:12;94946.97;;;33.65;38.31
20119;BME280;10220;42.716;23.306;2022-08-18T12:53:38;94946.88;;;33.62;38.64
20119;BME280;10220;42.716;23.306;2022-08-18T12:56:17;94913.69;;;33.54;38.41
20119;BME280;10220;42.716;23.306;2022-08-18T12:58:43;94933.25;;;33.70;38.36
20119;BME280;10220;42.716;23.306;2022-08-18T13:01:08;94942.34;;;33.32;39.33
20119;BME280;10220;42.716;23.306;2022-08-18T13:03:34;94942.44;;;33.35;38.83
20119;BME280;10220;42.716;23.306;2022-08-18T13:05:59;94932.31;;;33.29;39.37
20119;BME280;10220;42.716;23.306;2022-08-18T13:08:25;94930.22;;;33.22;38.30
20119;BME280;10220;42.716;23.306;2022-08-18T13:10:50;94925.16;;;33.36;38.86
20119;BME280;10220;42.716;23.306;2022-08-18T13:13:17;94915.81;;;33.30;38.85
20119;BME280;10220;42.716;23.306;2022-08-18T13:15:44;94920.84;;;33.32;38.70
20119;BME280;10220;42.716;23.306;2022-08-18T13:18:11;94921.31;;;33.18;38.69
20119;BME280;10220;42.716;23.306;2022-08-18T13:20:37;94920.50;;;33.18;39.49
20119;BME280;10220;42.716;23.306;2022-08-18T13:23:03;94918.47;;;33.45;38.72
20119;BME280;10220;42.716;23.306;2022-08-18T13:25:29;94865.13;;;33.13;39.08
20119;BME280;10220;42.716;23.306;2022-08-18T13:27:54;94911.53;;;33.44;39.55
20119;BME280;10220;42.716;23.306;2022-08-18T13:30:21;94914.22;;;33.44;39.35
20119;BME280;10220;42.716;23.306;2022-08-18T13:32:47;94916.97;;;33.48;39.67
20119;BME280;10220;42.716;23.306;2022-08-18T13:35:12;94914.75;;;33.34;39.54
20119;BME280;10220;42.716;23.306;2022-08-18T13:37:38;94906.06;;;33.41;38.50
20119;BME280;10220;42.716;23.306;2022-08-18T13:40:06;94873.00;;;33.22;38.62
20119;BME280;10220;42.716;23.306;2022-08-18T13:42:41;94907.59;;;33.23;38.88
20119;BME280;10220;42.716;23.306;2022-08-18T13:45:07;94881.63;;;32.81;39.53
20119;BME280;10220;42.716;23.306;2022-08-18T13:47:32;94898.69;;;33.19;39.78
20119;BME280;10220;42.716;23.306;2022-08-18T13:49:59;94897.50;;;33.01;39.37
20119;BME280;10220;42.716;23.306;2022-08-18T13:52:26;94874.53;;;32.73;39.21
20119;BME280;10220;42.716;23.306;2022-08-18T13:54:53;94895.56;;;32.86;39.85
20119;BME280;10220;42.716;23.306;2022-08-18T13:57:19;94898.28;;;33.02;39.53
20119;BME280;10220;42.716;23.306;2022-08-18T13:59:44;94893.44;;;32.61;40.31
20119;BME280;10220;42.716;23.306;2022-08-18T14:02:10;94889.34;;;32.82;40.04
20119;BME280;10220;42.716;23.306;2022-08-18T14:04:36;94892.56;;;32.72;40.67
20119;BME280;10220;42.716;23.306;2022-08-18T14:07:04;94880.16;;;32.83;40.03
20119;BME280;10220;42.716;23.306;2022-08-18T14:09:30;94900.53;;;32.84;39.62
20119;BME280;10220;42.716;23.306;2022-08-18T14:11:57;94862.78;;;32.62;40.98
20119;BME280;10220;42.716;23.306;2022-08-18T14:14:22;94875.75;;;32.75;40.05
20119;BME280;10220;42.716;23.306;2022-08-18T14:16:48;94861.81;;;32.70;39.19
20119;BME280;10220;42.716;23.306;2022-08-18T14:19:13;94870.13;;;32.80;39.48
20119;BME280;10220;42.716;23.306;2022-08-18T14:21:57;94898.47;;;32.78;40.47
20119;BME280;10220;42.716;23.306;2022-08-18T14:24:43;94850.22;;;32.66;41.10
20119;BME280;10220;42.716;23.306;2022-08-18T14:27:33;94835.75;;;32.55;41.16
20119;BME280;10220;42.716;23.306;2022-08-18T14:30:01;94879.06;;;32.54;41.30
20119;BME280;10220;42.716;23.306;2022-08-18T14:32:27;94861.03;;;32.54;40.49
20119;BME280;10220;42.716;23.306;2022-08-18T14:34:58;94884.53;;;32.57;40.95
20119;BME280;10220;42.716;23.306;2022-08-18T14:37:24;94867.72;;;32.60;40.87
20119;BME280;10220;42.716;23.306;2022-08-18T14:39:50;94873.16;;;32.64;39.94
20119;BME280;10220;42.716;23.306;2022-08-18T14:42:16;94877.13;;;32.54;40.36
20119;BME280;10220;42.716;23.306;2022-08-18T14:44:47;94871.88;;;32.58;40.78
20119;BME280;10220;42.716;23.306;2022-08-18T14:47:12;94884.03;;;32.40;40.85
20119;BME280;10220;42.716;23.306;2022-08-18T14:49:38;94878.88;;;32.47;40.31
20119;BME280;10220;42.716;23.306;2022-08-18T14:52:04;94874.09;;;32.40;40.60
20119;BME280;10220;42.716;23.306;2022-08-18T14:54:31;94829.75;;;32.15;40.62
20119;BME280;10220;42.716;23.306;2022-08-18T14:56:58;94865.75;;;32.14;39.94
20119;BME280;10220;42.716;23.306;2022-08-18T14:59:26;94893.91;;;32.20;40.31
20119;BME280;10220;42.716;23.306;2022-08-18T15:01:53;94890.44;;;32.20;40.42
20119;BME280;10220;42.716;23.306;2022-08-18T15:04:18;94883.59;;;32.22;41.19
20119;BME280;10220;42.716;23.306;2022-08-18T15:06:44;94872.88;;;32.22;41.24
20119;BME280;10220;42.716;23.306;2022-08-18T15:09:09;94888.63;;;32.24;41.94
20119;BME280;10220;42.716;23.306;2022-08-18T15:11:35;94889.06;;;32.26;41.66
20119;BME280;10220;42.716;23.306;2022-08-18T15:14:00;94890.00;;;32.18;42.25
20119;BME280;10220;42.716;23.306;2022-08-18T15:16:26;94895.81;;;32.20;42.13
20119;BME280;10220;42.716;23.306;2022-08-18T15:18:52;94886.88;;;32.16;42.64
20119;BME280;10220;42.716;23.306;2022-08-18T15:21:17;94888.09;;;32.18;42.21